sensor_id;sensor_type;location;lat;lon;timestamp;pressure;altitude;pressure_sealevel;temperature;humidity
61573;BME280;47465;43.094;12.434;2023-04-26T00:02:04;98291.75;;;7.71;100.00
61573;BME280;47465;43.094;12.434;2023-04-26T00:04:30;98264.81;;;7.53;100.00
61573;BME280;47465;43.094;12.434;2023-04-26T00:06:56;98260.75;;;7.38;100.00
61573;BME280;47465;43.094;12.434;2023-04-26T00:09:23;98300.19;;;7.49;100.00
61573;BME280;47465;43.094;12.434;2023-04-26T00:11:50;98242.34;;;7.34;100.00
61573;BME280;47465;43.094;12.434;2023-04-26T00:14:16;98289.25;;;7.65;100.00
61573;BME280;47465;43.094;12.434;2023-04-26T00:16:42;98296.78;;;7.83;100.00
61573;BME280;47465;43.094;12.434;2023-04-26T00:19:08;98270.63;;;7.69;100.00
61573;BME280;47465;43.094;12.434;2023-04-26T00:21:35;98263.47;;;7.73;100.00
61573;BME280;47465;43.094;12.434;2023-04-26T00:24:01;98294.72;;;7.96;100.00
61573;BME280;47465;43.094;12.434;2023-04-26T00:26:27;98274.78;;;7.79;100.00
61573;BME280;47465;43.094;12.434;2023-04-26T00:28:55;98251.34;;;7.64;99.96
61573;BME280;47465;43.094;12.434;2023-04-26T00:31:22;98255.97;;;7.54;100.00
61573;BME280;47465;43.094;12.434;2023-04-26T00:33:48;98235.88;;;7.46;100.00
61573;BME280;47465;43.094;12.434;2023-04-26T00:36:14;98247.25;;;7.51;100.00
61573;BME280;47465;43.094;12.434;2023-04-26T00:38:43;98291.72;;;7.72;100.00
61573;BME280;47465;43.094;12.434;2023-04-26T00:41:09;98263.97;;;7.53;100.00
61573;BME280;47465;43.094;12.434;2023-04-26T00:43:35;98276.22;;;7.57;100.00
61573;BME280;47465;43.094;12.434;2023-04-26T00:46:02;98253.66;;;7.39;100.00
61573;BME280;47465;43.094;12.434;2023-04-26T00:48:29;98276.41;;;7.48;100.00
61573;BME280;47465;43.094;12.434;2023-04-26T00:50:55;98267.72;;;7.43;100.00
61573;BME280;47465;43.094;12.434;2023-04-26T00:53:22;98292.97;;;7.56;100.00
61573;BME280;47465;43.094;12.434;2023-04-26T00:55:48;98289.59;;;7.49;100.00
61573;BME280;47465;43.094;12.434;2023-04-26T00:58:17;98275.41;;;7.53;100.00
61573;BME280;47465;43.094;12.434;2023-04-26T01:00:43;98273.75;;;7.48;100.00
61573;BME280;47465;43.094;12.434;2023-04-26T01:03:12;98258.31;;;7.29;100.00
61573;BME280;47465;43.094;12.434;2023-04-26T01:05:38;98279.47;;;7.29;100.00
61573;BME280;47465;43.094;12.434;2023-04-26T01:08:05;98297.19;;;7.24;100.00
61573;BME280;47465;43.094;12.434;2023-04-26T01:10:31;98272.94;;;7.04;100.00
61573;BME280;47465;43.094;12.434;2023-04-26T01:12:59;98270.41;;;6.99;100.00
61573;BME280;47465;43.094;12.434;2023-04-26T01:15:26;98249.78;;;6.74;100.00
61573;BME280;47465;43.094;12.434;2023-04-26T01:17:55;98285.63;;;6.86;100.00
61573;BME280;47465;43.094;12.434;2023-04-26T01:20:22;98257.00;;;6.65;100.00
61573;BME280;47465;43.094;12.434;2023-04-26T01:22:50;98277.06;;;6.75;100.00
61573;BME280;47465;43.094;12.434;2023-04-26T01:25:20;98252.75;;;6.56;100.00
61573;BME280;47465;43.094;12.434;2023-04-26T01:27:46;98254.63;;;6.51;100.00
61573;BME280;47465;43.094;12.434;2023-04-26T01:30:12;98277.28;;;6.63;100.00
61573;BME280;47465;43.094;12.434;2023-04-26T01:32:38;98269.53;;;6.53;100.00
61573;BME280;47465;43.094;12.434;2023-04-26T01:35:05;98270.59;;;6.43;100.00
61573;BME280;47465;43.094;12.434;2023-04-26T01:37:32;98252.41;;;6.28;100.00
61573;BME280;47465;43.094;12.434;2023-04-26T01:39:59;98277.75;;;6.38;100.00
61573;BME280;47465;43.094;12.434;2023-04-26T01:42:25;98249.97;;;6.17;100.00
61573;BME280;47465;43.094;12.434;2023-04-26T01:44:51;98236.75;;;6.17;100.00
61573;BME280;47465;43.094;12.434;2023-04-26T01:47:17;98267.13;;;6.40;100.00
61573;BME280;47465;43.094;12.434;2023-04-26T01:49:43;98261.91;;;6.38;100.00
61573;BME280;47465;43.094;12.434;2023-04-26T01:52:09;98273.25;;;6.43;100.00
61573;BME280;47465;43.094;12.434;2023-04-26T01:54:35;98308.78;;;6.75;100.00
61573;BME280;47465;43.094;12.434;2023-04-26T01:57:03;98313.13;;;6.77;100.00
61573;BME280;47465;43.094;12.434;2023-04-26T01:59:28;98265.00;;;6.62;100.00
61573;BME280;47465;43.094;12.434;2023-04-26T02:01:54;98263.97;;;6.69;100.00
61573;BME280;47465;43.094;12.434;2023-04-26T02:04:20;98308.34;;;6.96;100.00
61573;BME280;47465;43.094;12.434;2023-04-26T02:06:46;98315.47;;;6.91;100.00
61573;BME280;47465;43.094;12.434;2023-04-26T02:09:12;98270.41;;;6.54;100.00
61573;BME280;47465;43.094;12.434;2023-04-26T02:11:38;98301.03;;;6.64;100.00
61573;BME280;47465;43.094;12.434;2023-04-26T02:14:05;98276.06;;;6.34;100.00
61573;BME280;47465;43.094;12.434;2023-04-26T02:16:31;98303.16;;;6.44;100.00
61573;BME280;47465;43.094;12.434;2023-04-26T02:18:57;98313.81;;;6.41;100.00
61573;BME280;47465;43.094;12.434;2023-04-26T02:21:24;98281.63;;;6.17;100.00
61573;BME280;47465;43.094;12.434;2023-04-26T02:23:51;98303.50;;;6.27;100.00
61573;BME280;47465;43.094;12.434;2023-04-26T02:26:17;98321.06;;;6.28;100.00
61573;BME280;47465;43.094;12.434;2023-04-26T02:28:43;98282.84;;;5.97;100.00
61573;BME280;47465;43.094;12.434;2023-04-26T02:31:11;98287.34;;;5.89;100.00
61573;BME280;47465;43.094;12.434;2023-04-26T02:33:37;98306.66;;;5.91;100.00
61573;BME280;47465;43.094;12.434;2023-04-26T02:36:04;98317.09;;;6.01;100.00
61573;BME280;47465;43.094;12.434;2023-04-26T02:38:32;98347.38;;;6.34;100.00
61573;BME280;47465;43.094;12.434;2023-04-26T02:40:58;98311.25;;;6.34;100.00
61573;BME280;47465;43.094;12.434;2023-04-26T02:43:24;98291.91;;;6.35;100.00
61573;BME280;47465;43.094;12.434;2023-04-26T02:45:51;98299.69;;;6.42;100.00
61573;BME280;47465;43.094;12.434;2023-04-26T02:48:18;98313.69;;;6.47;100.00
61573;BME280;47465;43.094;12.434;2023-04-26T02:50:45;98329.63;;;6.42;100.00
61573;BME280;47465;43.094;12.434;2023-04-26T02:53:11;98318.44;;;6.26;100.00
61573;BME280;47465;43.094;12.434;2023-04-26T02:55:38;98344.75;;;6.32;100.00
61573;BME280;47465;43.094;12.434;2023-04-26T02:58:04;98326.59;;;6.12;100.00
61573;BME280;47465;43.094;12.434;2023-04-26T03:00:31;98320.72;;;5.95;100.00
61573;BME280;47465;43.094;12.434;2023-04-26T03:02:58;98304.16;;;5.82;100.00
61573;BME280;47465;43.094;12.434;2023-04-26T03:05:25;98319.16;;;5.80;100.00
61573;BME280;47465;43.094;12.434;2023-04-26T03:07:51;98345.59;;;5.77;100.00
61573;BME280;47465;43.094;12.434;2023-04-26T03:10:17;98357.78;;;5.86;100.00
61573;BME280;47465;43.094;12.434;2023-04-26T03:12:43;98334.44;;;5.58;100.00
61573;BME280;47465;43.094;12.434;2023-04-26T03:15:09;98340.69;;;5.49;100.00
61573;BME280;47465;43.094;12.434;2023-04-26T03:17:35;98378.34;;;5.62;100.00
61573;BME280;47465;43.094;12.434;2023-04-26T03:20:01;98330.44;;;5.26;100.00
61573;BME280;47465;43.094;12.434;2023-04-26T03:22:30;98335.72;;;5.28;100.00
61573;BME280;47465;43.094;12.434;2023-04-26T03:24:56;98336.66;;;5.22;100.00
61573;BME280;47465;43.094;12.434;2023-04-26T03:27:22;98376.00;;;5.38;100.00
61573;BME280;47465;43.094;12.434;2023-04-26T03:29:48;98334.25;;;5.02;100.00
61573;BME280;47465;43.094;12.434;2023-04-26T03:32:14;98363.13;;;5.13;100.00
61573;BME280;47465;43.094;12.434;2023-04-26T03:34:39;98335.19;;;4.98;100.00
61573;BME280;47465;43.094;12.434;2023-04-26T03:37:05;98394.56;;;5.31;100.00
61573;BME280;47465;43.094;12.434;2023-04-26T03:39:33;98349.09;;;5.09;100.00
61573;BME280;47465;43.094;12.434;2023-04-26T03:41:59;98394.69;;;5.19;100.00
61573;BME280;47465;43.094;12.434;2023-04-26T03:44:25;98339.75;;;4.84;100.00
61573;BME280;47465;43.094;12.434;2023-04-26T03:46:51;98382.50;;;5.07;100.00
61573;BME280;47465;43.094;12.434;2023-04-26T03:49:18;98372.06;;;4.98;100.00
61573;BME280;47465;43.094;12.434;2023-04-26T03:51:43;98353.84;;;4.80;100.00
61573;BME280;47465;43.094;12.434;2023-04-26T03:54:09;98375.63;;;4.94;100.00
61573;BME280;47465;43.094;12.434;2023-04-26T03:56:37;98365.16;;;4.88;100.00
61573;BME280;47465;43.094;12.434;2023-04-26T03:59:04;98372.19;;;4.89;100.00
61573;BME280;47465;43.094;12.434;2023-04-26T04:01:30;98359.88;;;4.88;100.00
61573;BME280;47465;43.094;12.434;2023-04-26T04:03:56;98366.00;;;4.93;100.00
61573;BME280;47465;43.094;12.434;2023-04-26T04:06:22;98394.69;;;5.21;100.00
61573;BME280;47465;43.094;12.434;2023-04-26T04:08:48;98381.38;;;5.31;100.00
61573;BME280;47465;43.094;12.434;2023-04-26T04:11:14;98382.53;;;5.75;100.00
61573;BME280;47465;43.094;12.434;2023-04-26T04:13:41;98388.31;;;6.05;100.00
61573;BME280;47465;43.094;12.434;2023-04-26T04:16:07;98366.13;;;6.15;100.00
61573;BME280;47465;43.094;12.434;2023-04-26T04:18:34;98406.81;;;7.09;95.17
61573;BME280;47465;43.094;12.434;2023-04-26T04:21:01;98380.31;;;7.11;92.79
61573;BME280;47465;43.094;12.434;2023-04-26T04:23:26;98390.75;;;7.18;92.77
61573;BME280;47465;43.094;12.434;2023-04-26T04:25:52;98377.13;;;6.93;93.74
61573;BME280;47465;43.094;12.434;2023-04-26T04:28:18;98373.09;;;7.20;90.76
61573;BME280;47465;43.094;12.434;2023-04-26T04:30:46;98402.38;;;7.55;89.85
61573;BME280;47465;43.094;12.434;2023-04-26T04:33:12;98378.78;;;7.44;88.84
61573;BME280;47465;43.094;12.434;2023-04-26T04:35:39;98398.47;;;7.73;87.56
61573;BME280;47465;43.094;12.434;2023-04-26T04:38:05;98378.22;;;7.70;86.46
61573;BME280;47465;43.094;12.434;2023-04-26T04:40:31;98390.16;;;7.90;85.25
61573;BME280;47465;43.094;12.434;2023-04-26T04:42:57;98373.38;;;7.89;84.08
61573;BME280;47465;43.094;12.434;2023-04-26T04:45:25;98379.31;;;8.00;83.71
61573;BME280;47465;43.094;12.434;2023-04-26T04:47:53;98381.06;;;8.00;83.38
61573;BME280;47465;43.094;12.434;2023-04-26T04:50:19;98378.75;;;7.86;86.37
61573;BME280;47465;43.094;12.434;2023-04-26T04:52:45;98384.38;;;7.71;87.44
61573;BME280;47465;43.094;12.434;2023-04-26T04:55:11;98390.22;;;7.46;89.37
61573;BME280;47465;43.094;12.434;2023-04-26T04:57:37;98392.31;;;7.29;93.07
61573;BME280;47465;43.094;12.434;2023-04-26T05:00:04;98403.91;;;7.22;93.83
61573;BME280;47465;43.094;12.434;2023-04-26T05:02:37;98432.78;;;7.34;94.53
61573;BME280;47465;43.094;12.434;2023-04-26T05:05:05;98438.25;;;7.25;95.67
61573;BME280;47465;43.094;12.434;2023-04-26T05:07:32;98398.06;;;7.04;96.45
61573;BME280;47465;43.094;12.434;2023-04-26T05:09:58;98403.31;;;7.07;96.34
61573;BME280;47465;43.094;12.434;2023-04-26T05:12:24;98406.66;;;7.15;95.83
61573;BME280;47465;43.094;12.434;2023-04-26T05:14:50;98404.88;;;7.17;96.00
61573;BME280;47465;43.094;12.434;2023-04-26T05:17:16;98407.56;;;7.16;96.63
61573;BME280;47465;43.094;12.434;2023-04-26T05:19:42;98405.78;;;7.16;97.88
61573;BME280;47465;43.094;12.434;2023-04-26T05:22:31;98450.00;;;7.55;97.00
61573;BME280;47465;43.094;12.434;2023-04-26T05:24:59;98459.34;;;7.71;97.55
61573;BME280;47465;43.094;12.434;2023-04-26T05:27:27;98425.03;;;7.68;96.81
61573;BME280;47465;43.094;12.434;2023-04-26T05:29:53;98429.34;;;8.13;94.73
61573;BME280;47465;43.094;12.434;2023-04-26T05:32:19;98461.31;;;8.81;92.64
61573;BME280;47465;43.094;12.434;2023-04-26T05:34:45;98437.75;;;9.05;87.89
61573;BME280;47465;43.094;12.434;2023-04-26T05:37:11;98450.69;;;9.50;86.38
61573;BME280;47465;43.094;12.434;2023-04-26T05:39:38;98441.28;;;9.70;82.16
61573;BME280;47465;43.094;12.434;2023-04-26T05:42:04;98419.44;;;9.90;80.21
61573;BME280;47465;43.094;12.434;2023-04-26T05:44:30;98426.59;;;10.17;79.07
61573;BME280;47465;43.094;12.434;2023-04-26T05:46:56;98450.53;;;10.45;75.66
61573;BME280;47465;43.094;12.434;2023-04-26T05:49:22;98432.41;;;10.30;74.52
61573;BME280;47465;43.094;12.434;2023-04-26T05:51:48;98437.47;;;10.66;72.96
61573;BME280;47465;43.094;12.434;2023-04-26T05:54:14;98444.88;;;10.83;73.44
61573;BME280;47465;43.094;12.434;2023-04-26T05:56:41;98440.59;;;10.79;71.82
61573;BME280;47465;43.094;12.434;2023-04-26T05:59:08;98435.41;;;11.01;70.57
61573;BME280;47465;43.094;12.434;2023-04-26T06:01:34;98457.91;;;11.17;70.65
61573;BME280;47465;43.094;12.434;2023-04-26T06:04:00;98460.06;;;11.06;70.04
61573;BME280;47465;43.094;12.434;2023-04-26T06:06:26;98454.31;;;11.18;71.16
61573;BME280;47465;43.094;12.434;2023-04-26T06:08:52;98447.38;;;11.14;70.84
61573;BME280;47465;43.094;12.434;2023-04-26T06:11:18;98449.31;;;11.34;70.37
61573;BME280;47465;43.094;12.434;2023-04-26T06:13:45;98480.31;;;11.62;69.46
61573;BME280;47465;43.094;12.434;2023-04-26T06:16:11;98447.38;;;11.39;68.65
61573;BME280;47465;43.094;12.434;2023-04-26T06:18:37;98462.84;;;11.53;69.64
61573;BME280;47465;43.094;12.434;2023-04-26T06:21:04;98467.06;;;11.84;69.40
61573;BME280;47465;43.094;12.434;2023-04-26T06:23:30;98468.09;;;12.05;67.89
61573;BME280;47465;43.094;12.434;2023-04-26T06:25:55;98484.75;;;11.86;69.42
61573;BME280;47465;43.094;12.434;2023-04-26T06:28:21;98467.88;;;11.86;68.98
61573;BME280;47465;43.094;12.434;2023-04-26T06:30:49;98472.63;;;12.03;67.27
61573;BME280;47465;43.094;12.434;2023-04-26T06:33:15;98460.69;;;12.13;66.40
61573;BME280;47465;43.094;12.434;2023-04-26T06:35:41;98459.47;;;12.22;66.66
61573;BME280;47465;43.094;12.434;2023-04-26T06:38:07;98495.63;;;12.05;67.01
61573;BME280;47465;43.094;12.434;2023-04-26T06:40:34;98464.53;;;12.06;68.12
61573;BME280;47465;43.094;12.434;2023-04-26T06:43:01;98493.75;;;12.07;67.07
61573;BME280;47465;43.094;12.434;2023-04-26T06:45:28;98498.63;;;12.20;68.38
61573;BME280;47465;43.094;12.434;2023-04-26T06:47:55;98464.88;;;12.42;66.12
61573;BME280;47465;43.094;12.434;2023-04-26T06:50:21;98481.59;;;12.47;66.38
61573;BME280;47465;43.094;12.434;2023-04-26T06:52:47;98484.69;;;12.13;67.59
61573;BME280;47465;43.094;12.434;2023-04-26T06:55:13;98488.81;;;12.44;65.86
61573;BME280;47465;43.094;12.434;2023-04-26T06:57:39;98483.88;;;12.57;68.19
61573;BME280;47465;43.094;12.434;2023-04-26T07:00:07;98464.25;;;12.58;65.61
61573;BME280;47465;43.094;12.434;2023-04-26T07:02:34;98474.38;;;12.27;65.23
61573;BME280;47465;43.094;12.434;2023-04-26T07:05:01;98457.19;;;12.35;65.99
61573;BME280;47465;43.094;12.434;2023-04-26T07:07:27;98476.72;;;12.79;64.90
61573;BME280;47465;43.094;12.434;2023-04-26T07:09:53;98464.03;;;12.18;67.11
61573;BME280;47465;43.094;12.434;2023-04-26T07:12:19;98491.13;;;12.53;66.69
61573;BME280;47465;43.094;12.434;2023-04-26T07:14:45;98461.22;;;12.89;64.53
61573;BME280;47465;43.094;12.434;2023-04-26T07:17:11;98480.88;;;13.30;62.50
61573;BME280;47465;43.094;12.434;2023-04-26T07:19:37;98485.81;;;13.40;62.65
61573;BME280;47465;43.094;12.434;2023-04-26T07:22:04;98473.47;;;13.15;62.82
61573;BME280;47465;43.094;12.434;2023-04-26T07:24:30;98496.19;;;13.47;63.63
61573;BME280;47465;43.094;12.434;2023-04-26T07:26:56;98494.50;;;13.65;61.75
61573;BME280;47465;43.094;12.434;2023-04-26T07:29:22;98465.50;;;13.35;61.44
61573;BME280;47465;43.094;12.434;2023-04-26T07:31:48;98483.41;;;13.33;61.85
61573;BME280;47465;43.094;12.434;2023-04-26T07:34:14;98497.03;;;13.48;62.89
61573;BME280;47465;43.094;12.434;2023-04-26T07:36:40;98492.69;;;13.86;62.18
61573;BME280;47465;43.094;12.434;2023-04-26T07:39:07;98480.44;;;14.01;61.16
61573;BME280;47465;43.094;12.434;2023-04-26T07:41:34;98503.72;;;14.57;59.94
61573;BME280;47465;43.094;12.434;2023-04-26T07:44:00;98486.53;;;14.81;59.20
61573;BME280;47465;43.094;12.434;2023-04-26T07:46:26;98471.81;;;14.89;58.36
61573;BME280;47465;43.094;12.434;2023-04-26T07:48:52;98491.25;;;14.56;59.21
61573;BME280;47465;43.094;12.434;2023-04-26T07:51:18;98496.38;;;14.80;59.59
61573;BME280;47465;43.094;12.434;2023-04-26T07:53:44;98504.66;;;15.47;57.82
61573;BME280;47465;43.094;12.434;2023-04-26T07:56:11;98480.75;;;14.71;55.97
61573;BME280;47465;43.094;12.434;2023-04-26T07:58:38;98479.81;;;15.08;55.89
61573;BME280;47465;43.094;12.434;2023-04-26T08:01:04;98514.00;;;15.03;55.94
61573;BME280;47465;43.094;12.434;2023-04-26T08:03:30;98506.63;;;14.89;57.45
61573;BME280;47465;43.094;12.434;2023-04-26T08:05:56;98493.34;;;14.88;56.70
61573;BME280;47465;43.094;12.434;2023-04-26T08:08:24;98507.03;;;15.53;54.22
61573;BME280;47465;43.094;12.434;2023-04-26T08:10:50;98488.97;;;15.91;56.87
61573;BME280;47465;43.094;12.434;2023-04-26T08:13:17;98478.69;;;15.99;52.99
61573;BME280;47465;43.094;12.434;2023-04-26T08:15:43;98499.91;;;15.69;52.29
61573;BME280;47465;43.094;12.434;2023-04-26T08:18:09;98495.97;;;15.59;51.73
61573;BME280;47465;43.094;12.434;2023-04-26T08:20:35;98515.28;;;15.48;51.69
61573;BME280;47465;43.094;12.434;2023-04-26T08:23:01;98502.28;;;15.23;51.36
61573;BME280;47465;43.094;12.434;2023-04-26T08:25:27;98487.25;;;15.38;52.96
61573;BME280;47465;43.094;12.434;2023-04-26T08:27:53;98498.22;;;15.51;51.57
61573;BME280;47465;43.094;12.434;2023-04-26T08:30:21;98506.03;;;15.73;51.56
61573;BME280;47465;43.094;12.434;2023-04-26T08:32:47;98511.13;;;16.28;50.39
61573;BME280;47465;43.094;12.434;2023-04-26T08:35:13;98500.75;;;16.54;49.70
61573;BME280;47465;43.094;12.434;2023-04-26T08:37:39;98500.72;;;16.22;49.04
61573;BME280;47465;43.094;12.434;2023-04-26T08:40:06;98496.06;;;16.41;48.93
61573;BME280;47465;43.094;12.434;2023-04-26T08:42:38;98506.72;;;16.59;48.14
61573;BME280;47465;43.094;12.434;2023-04-26T08:45:05;98501.59;;;16.88;47.80
61573;BME280;47465;43.094;12.434;2023-04-26T08:47:38;98502.09;;;16.94;47.65
61573;BME280;47465;43.094;12.434;2023-04-26T08:50:07;98503.63;;;17.14;46.75
61573;BME280;47465;43.094;12.434;2023-04-26T08:52:36;98509.09;;;16.65;47.08
61573;BME280;47465;43.094;12.434;2023-04-26T08:55:04;98518.81;;;16.68;47.28
61573;BME280;47465;43.094;12.434;2023-04-26T08:57:32;98523.25;;;16.02;47.86
61573;BME280;47465;43.094;12.434;2023-04-26T09:00:01;98509.59;;;16.07;48.77
61573;BME280;47465;43.094;12.434;2023-04-26T09:02:30;98508.28;;;16.47;48.24
61573;BME280;47465;43.094;12.434;2023-04-26T09:04:58;98513.16;;;16.56;48.44
61573;BME280;47465;43.094;12.434;2023-04-26T09:07:29;98515.19;;;16.84;46.42
61573;BME280;47465;43.094;12.434;2023-04-26T09:09:57;98525.06;;;17.16;48.21
61573;BME280;47465;43.094;12.434;2023-04-26T09:12:23;98520.66;;;16.34;47.36
61573;BME280;47465;43.094;12.434;2023-04-26T09:14:50;98522.63;;;16.63;47.59
61573;BME280;47465;43.094;12.434;2023-04-26T09:17:26;98505.50;;;17.28;47.54
61573;BME280;47465;43.094;12.434;2023-04-26T09:19:53;98516.28;;;17.89;46.60
61573;BME280;47465;43.094;12.434;2023-04-26T09:22:29;98500.06;;;17.90;43.70
61573;BME280;47465;43.094;12.434;2023-04-26T09:24:55;98504.94;;;17.53;43.10
61573;BME280;47465;43.094;12.434;2023-04-26T09:27:31;98519.75;;;16.51;43.47
61573;BME280;47465;43.094;12.434;2023-04-26T09:29:58;98500.81;;;16.86;42.71
61573;BME280;47465;43.094;12.434;2023-04-26T09:32:24;98512.22;;;17.51;42.09
61573;BME280;47465;43.094;12.434;2023-04-26T09:34:50;98522.03;;;17.82;42.13
61573;BME280;47465;43.094;12.434;2023-04-26T09:37:16;98484.69;;;17.32;42.78
61573;BME280;47465;43.094;12.434;2023-04-26T09:39:44;98513.00;;;17.53;43.38
61573;BME280;47465;43.094;12.434;2023-04-26T09:42:10;98496.84;;;17.23;41.85
61573;BME280;47465;43.094;12.434;2023-04-26T09:44:36;98517.53;;;17.67;41.84
61573;BME280;47465;43.094;12.434;2023-04-26T09:47:03;98527.94;;;17.89;43.21
61573;BME280;47465;43.094;12.434;2023-04-26T09:49:31;98493.53;;;17.34;41.05
61573;BME280;47465;43.094;12.434;2023-04-26T09:52:02;98488.97;;;17.80;38.63
61573;BME280;47465;43.094;12.434;2023-04-26T09:54:45;98493.25;;;18.27;38.93
61573;BME280;47465;43.094;12.434;2023-04-26T09:57:13;98497.25;;;18.63;38.98
61573;BME280;47465;43.094;12.434;2023-04-26T09:59:41;98507.31;;;18.88;39.45
61573;BME280;47465;43.094;12.434;2023-04-26T10:02:12;98490.72;;;18.53;39.03
61573;BME280;47465;43.094;12.434;2023-04-26T10:04:38;98498.81;;;18.39;39.83
61573;BME280;47465;43.094;12.434;2023-04-26T10:07:05;98472.38;;;18.31;38.38
61573;BME280;47465;43.094;12.434;2023-04-26T10:09:31;98469.19;;;18.39;37.22
61573;BME280;47465;43.094;12.434;2023-04-26T10:11:59;98462.38;;;17.90;38.98
61573;BME280;47465;43.094;12.434;2023-04-26T10:14:26;98486.09;;;18.41;40.14
61573;BME280;47465;43.094;12.434;2023-04-26T10:16:53;98461.22;;;18.37;39.42
61573;BME280;47465;43.094;12.434;2023-04-26T10:19:20;98474.97;;;18.04;39.24
61573;BME280;47465;43.094;12.434;2023-04-26T10:21:47;98481.97;;;18.50;37.57
61573;BME280;47465;43.094;12.434;2023-04-26T10:24:14;98482.97;;;18.76;38.57
61573;BME280;47465;43.094;12.434;2023-04-26T10:26:47;98466.56;;;18.80;35.32
61573;BME280;47465;43.094;12.434;2023-04-26T10:29:18;98464.72;;;18.66;34.61
61573;BME280;47465;43.094;12.434;2023-04-26T10:32:06;98488.97;;;19.08;35.92
61573;BME280;47465;43.094;12.434;2023-04-26T10:34:34;98462.97;;;18.94;35.87
61573;BME280;47465;43.094;12.434;2023-04-26T10:37:09;98489.97;;;19.07;35.35
61573;BME280;47465;43.094;12.434;2023-04-26T10:39:35;98476.63;;;18.77;36.21
61573;BME280;47465;43.094;12.434;2023-04-26T10:42:21;98494.03;;;19.00;35.18
61573;BME280;47465;43.094;12.434;2023-04-26T10:44:50;98479.41;;;19.17;35.23
61573;BME280;47465;43.094;12.434;2023-04-26T10:47:28;98465.13;;;19.29;35.51
61573;BME280;47465;43.094;12.434;2023-04-26T10:50:04;98470.50;;;19.29;35.12
61573;BME280;47465;43.094;12.434;2023-04-26T10:52:30;98478.19;;;19.35;34.58
61573;BME280;47465;43.094;12.434;2023-04-26T10:54:57;98444.63;;;18.99;33.35
61573;BME280;47465;43.094;12.434;2023-04-26T10:57:50;98439.47;;;18.96;32.07
61573;BME280;47465;43.094;12.434;2023-04-26T11:00:28;98470.72;;;18.99;34.61
61573;BME280;47465;43.094;12.434;2023-04-26T11:02:57;98447.84;;;18.50;32.92
61573;BME280;47465;43.094;12.434;2023-04-26T11:05:49;98480.59;;;18.71;33.04
61573;BME280;47465;43.094;12.434;2023-04-26T11:08:18;98478.44;;;18.35;34.63
61573;BME280;47465;43.094;12.434;2023-04-26T11:10:49;98472.72;;;18.54;34.60
61573;BME280;47465;43.094;12.434;2023-04-26T11:13:16;98470.28;;;18.92;35.94
61573;BME280;47465;43.094;12.434;2023-04-26T11:15:44;98469.72;;;19.14;33.40
61573;BME280;47465;43.094;12.434;2023-04-26T11:18:11;98435.06;;;19.08;34.19
61573;BME280;47465;43.094;12.434;2023-04-26T11:20:36;98456.41;;;19.38;33.23
61573;BME280;47465;43.094;12.434;2023-04-26T11:23:02;98445.28;;;19.30;33.32
61573;BME280;47465;43.094;12.434;2023-04-26T11:25:32;98447.47;;;19.50;33.66
61573;BME280;47465;43.094;12.434;2023-04-26T11:27:59;98454.72;;;19.63;33.57
61573;BME280;47465;43.094;12.434;2023-04-26T11:30:27;98450.19;;;19.63;34.66
61573;BME280;47465;43.094;12.434;2023-04-26T11:32:55;98460.63;;;19.82;33.46
61573;BME280;47465;43.094;12.434;2023-04-26T11:35:21;98436.16;;;19.45;34.11
61573;BME280;47465;43.094;12.434;2023-04-26T11:37:47;98460.53;;;19.44;32.08
61573;BME280;47465;43.094;12.434;2023-04-26T11:40:15;98441.41;;;18.94;30.46
61573;BME280;47465;43.094;12.434;2023-04-26T11:42:42;98431.97;;;19.14;30.86
61573;BME280;47465;43.094;12.434;2023-04-26T11:45:09;98438.31;;;19.00;29.75
61573;BME280;47465;43.094;12.434;2023-04-26T11:47:36;98428.56;;;19.25;32.42
61573;BME280;47465;43.094;12.434;2023-04-26T11:50:06;98440.16;;;19.53;31.12
61573;BME280;47465;43.094;12.434;2023-04-26T11:52:32;98437.66;;;19.37;28.39
61573;BME280;47465;43.094;12.434;2023-04-26T11:55:03;98426.31;;;18.77;29.05
61573;BME280;47465;43.094;12.434;2023-04-26T11:57:31;98438.75;;;18.80;30.21
61573;BME280;47465;43.094;12.434;2023-04-26T12:00:12;98415.75;;;18.74;31.84
61573;BME280;47465;43.094;12.434;2023-04-26T12:02:42;98430.34;;;19.12;28.71
61573;BME280;47465;43.094;12.434;2023-04-26T12:05:10;98397.66;;;19.03;28.76
61573;BME280;47465;43.094;12.434;2023-04-26T12:07:36;98436.53;;;19.26;28.48
61573;BME280;47465;43.094;12.434;2023-04-26T12:10:16;98416.69;;;18.87;27.51
61573;BME280;47465;43.094;12.434;2023-04-26T12:12:49;98437.00;;;19.06;27.93
61573;BME280;47465;43.094;12.434;2023-04-26T12:15:16;98435.53;;;19.15;27.26
61573;BME280;47465;43.094;12.434;2023-04-26T12:17:55;98407.97;;;19.24;27.65
61573;BME280;47465;43.094;12.434;2023-04-26T12:20:30;98409.19;;;19.05;28.01
61573;BME280;47465;43.094;12.434;2023-04-26T12:23:04;98454.41;;;18.87;28.81
61573;BME280;47465;43.094;12.434;2023-04-26T12:25:31;98423.56;;;19.19;29.12
61573;BME280;47465;43.094;12.434;2023-04-26T12:28:02;98405.38;;;19.22;27.18
61573;BME280;47465;43.094;12.434;2023-04-26T12:30:38;98398.56;;;19.29;27.55
61573;BME280;47465;43.094;12.434;2023-04-26T12:33:16;98439.03;;;19.82;26.91
61573;BME280;47465;43.094;12.434;2023-04-26T12:40:03;98396.81;;;19.81;27.13
61573;BME280;47465;43.094;12.434;2023-04-26T12:42:32;98405.97;;;20.04;28.41
61573;BME280;47465;43.094;12.434;2023-04-26T12:45:00;98399.28;;;19.97;24.53
61573;BME280;47465;43.094;12.434;2023-04-26T12:47:37;98393.09;;;20.08;25.73
61573;BME280;47465;43.094;12.434;2023-04-26T12:50:03;98419.66;;;20.14;23.95
61573;BME280;47465;43.094;12.434;2023-04-26T12:52:30;98403.06;;;19.95;25.48
61573;BME280;47465;43.094;12.434;2023-04-26T12:58:06;98421.34;;;19.38;25.14
61573;BME280;47465;43.094;12.434;2023-04-26T13:00:32;98433.72;;;19.81;26.24